Time;durP1;ratioP1;P1;durP2;ratioP2;P2;SDS_P1;SDS_P2;PMS_P1;PMS_P2;Temp;Humidity;BMP_temperature;BMP_pressure;BME280_temperature;BME280_humidity;BME280_pressure;Samples;Min_cycle;Max_cycle;Signal;HPM_P1;HPM_P2
2023/12/17 00:02:20;;;;;;;1.73;0.90;;;;;;;21.21;45.00;103697.91;5048683;27;96935;-76
2023/12/17 00:04:46;;;;;;;1.48;1.00;;;;;;;21.22;45.25;103699.69;5069934;27;96924;-76
2023/12/17 00:07:14;;;;;;;0.85;0.70;;;;;;;21.22;45.18;103690.59;5052948;27;97424;-76
2023/12/17 00:09:41;;;;;;;1.48;1.05;;;;;;;21.22;45.30;103690.59;5056836;27;96796;-76
2023/12/17 00:12:08;;;;;;;1.20;1.02;;;;;;;21.22;45.03;103686.03;5059878;27;98032;-76
2023/12/17 00:14:34;;;;;;;1.10;0.80;;;;;;;21.23;44.87;103689.63;5063193;27;96826;-76
2023/12/17 00:17:01;;;;;;;1.88;1.20;;;;;;;21.23;45.04;103681.44;5044961;27;96815;-76
2023/12/17 00:19:27;;;;;;;1.85;0.95;;;;;;;21.23;45.10;103689.63;5059114;27;97738;-76
2023/12/17 00:21:54;;;;;;;1.92;1.20;;;;;;;21.23;45.35;103687.78;5061976;27;98017;-76
2023/12/17 00:24:21;;;;;;;2.00;1.00;;;;;;;21.23;44.96;103685.03;5061078;27;96800;-76
2023/12/17 00:26:48;;;;;;;1.80;1.10;;;;;;;21.25;45.15;103683.06;5065612;27;96645;-76
2023/12/17 00:29:14;;;;;;;1.13;0.77;;;;;;;21.24;45.16;103678.59;5034552;27;96875;-76
2023/12/17 00:31:41;;;;;;;1.40;1.00;;;;;;;21.25;45.34;103674.00;5065928;27;99375;-76
2023/12/17 00:34:07;;;;;;;1.42;1.05;;;;;;;21.25;45.28;103660.34;5057461;27;96842;-76
2023/12/17 00:36:34;;;;;;;1.35;1.08;;;;;;;21.24;45.04;103678.59;5058123;27;96829;-76
2023/12/17 00:39:01;;;;;;;2.75;1.02;;;;;;;21.26;44.84;103686.69;5069323;27;96614;-76
2023/12/17 00:41:28;;;;;;;1.20;0.93;;;;;;;21.25;44.88;103688.53;5057181;27;96915;-76
2023/12/17 00:43:54;;;;;;;1.77;1.10;;;;;;;21.26;45.01;103686.69;5064590;27;96633;-76
2023/12/17 00:46:21;;;;;;;1.17;0.93;;;;;;;21.26;44.63;103689.41;5074671;27;96817;-76
2023/12/17 00:48:47;;;;;;;1.23;1.10;;;;;;;21.27;45.10;103684.81;5074344;27;98319;-76
2023/12/17 00:51:14;;;;;;;1.60;1.00;;;;;;;21.27;45.01;103677.50;5064008;27;96683;-76
2023/12/17 00:53:41;;;;;;;1.45;1.10;;;;;;;21.27;45.21;103672.03;5075522;27;96835;-76
2023/12/17 00:56:08;;;;;;;2.45;0.85;;;;;;;21.27;45.08;103663.81;5053363;27;96841;-76
2023/12/17 00:58:34;;;;;;;1.85;1.05;;;;;;;21.27;45.01;103663.81;5068738;27;96840;-76
2023/12/17 01:01:01;;;;;;;1.42;0.90;;;;;;;21.27;44.98;103663.81;5036343;27;99556;-76
2023/12/17 01:03:28;;;;;;;1.42;1.13;;;;;;;21.28;44.91;103662.84;5044057;27;96948;-76
2023/12/17 01:05:55;;;;;;;1.13;0.90;;;;;;;21.28;45.07;103661.97;5045563;27;96901;-76
2023/12/17 01:08:22;;;;;;;1.50;1.00;;;;;;;21.29;44.94;103660.97;5056771;27;96972;-76
2023/12/17 01:10:48;;;;;;;1.48;0.90;;;;;;;21.28;45.06;103660.09;5074074;27;97626;-76
2023/12/17 01:13:15;;;;;;;1.30;1.10;;;;;;;21.29;45.31;103655.50;5049786;27;97402;-76
2023/12/17 01:15:42;;;;;;;1.10;0.90;;;;;;;21.28;45.13;103657.38;5047300;27;96718;-76
2023/12/17 01:18:09;;;;;;;1.55;1.23;;;;;;;21.29;44.91;103659.13;5063598;27;96881;-76
2023/12/17 01:20:36;;;;;;;1.33;0.80;;;;;;;21.29;45.12;103672.78;5033992;27;99881;-76
2023/12/17 01:23:02;;;;;;;2.03;1.25;;;;;;;21.30;44.74;103676.41;5066963;27;96743;-76
2023/12/17 01:25:29;;;;;;;2.00;1.10;;;;;;;21.29;44.95;103681.00;5062649;27;96783;-76
2023/12/17 01:27:56;;;;;;;0.98;0.88;;;;;;;21.31;44.98;103679.03;5068270;27;97620;-76
2023/12/17 01:30:22;;;;;;;1.75;1.02;;;;;;;21.31;45.05;103673.56;5066112;27;98859;-76
2023/12/17 01:32:49;;;;;;;1.77;1.00;;;;;;;21.31;45.07;103675.41;5062037;27;96897;-76
2023/12/17 01:35:16;;;;;;;1.42;0.90;;;;;;;21.30;44.97;103681.88;5062072;27;97136;-76
2023/12/17 01:37:42;;;;;;;1.58;0.95;;;;;;;21.32;45.02;103679.91;5061107;27;96723;-76
2023/12/17 01:40:10;;;;;;;1.88;1.10;;;;;;;21.31;45.06;103692.69;5064106;27;99895;-76
2023/12/17 01:42:36;;;;;;;1.38;0.93;;;;;;;21.31;45.09;103691.81;5044529;27;96914;-76
2023/12/17 01:45:03;;;;;;;1.15;0.90;;;;;;;21.31;45.28;103691.81;5066816;27;96885;-76
2023/12/17 01:47:30;;;;;;;1.70;0.82;;;;;;;21.30;44.76;103693.69;5054880;27;96918;-76
2023/12/17 01:49:57;;;;;;;1.70;1.10;;;;;;;21.31;45.15;103689.97;5067638;27;99191;-76
2023/12/17 01:52:24;;;;;;;1.15;0.90;;;;;;;21.31;45.18;103680.88;5065015;27;96689;-76
2023/12/17 01:54:50;;;;;;;1.40;0.90;;;;;;;21.32;45.17;103688.09;5073204;27;97100;-76
2023/12/17 01:57:17;;;;;;;1.50;1.05;;;;;;;21.31;45.29;103678.16;5066141;27;97612;-76
2023/12/17 01:59:46;;;;;;;1.63;1.17;;;;;;;21.33;45.05;103687.13;5043185;27;98245;-76
2023/12/17 02:02:13;;;;;;;1.83;1.20;;;;;;;21.31;45.02;103691.81;5059288;27;96684;-76
2023/12/17 02:04:40;;;;;;;1.65;0.98;;;;;;;21.31;45.18;103679.03;5073739;27;96815;-76
2023/12/17 02:07:07;;;;;;;2.60;1.10;;;;;;;21.31;45.09;103684.50;5060360;27;97015;-76
2023/12/17 02:09:34;;;;;;;1.55;1.00;;;;;;;21.32;45.11;103680.78;5060882;27;97371;-76
2023/12/17 02:12:00;;;;;;;1.00;0.88;;;;;;;21.32;44.96;103688.97;5046533;27;96924;-76
2023/12/17 02:14:27;;;;;;;1.00;0.80;;;;;;;21.32;45.21;103678.03;5072548;27;96946;-76
2023/12/17 02:16:54;;;;;;;1.33;0.85;;;;;;;21.32;44.89;103680.78;5059086;27;96966;-76
2023/12/17 02:19:20;;;;;;;1.33;1.13;;;;;;;21.32;45.01;103675.31;5057760;27;97710;-76
2023/12/17 02:21:47;;;;;;;1.65;1.05;;;;;;;21.32;44.96;103672.56;5067294;27;96779;-76
2023/12/17 02:24:14;;;;;;;2.17;0.90;;;;;;;21.33;45.05;103670.72;5060831;27;98252;-76
2023/12/17 02:26:42;;;;;;;1.52;0.90;;;;;;;21.32;45.24;103666.22;5063332;27;98690;-76
2023/12/17 02:29:09;;;;;;;0.90;0.77;;;;;;;21.32;45.18;103669.84;5065918;27;96882;-76
2023/12/17 02:31:36;;;;;;;1.55;1.05;;;;;;;21.33;45.00;103673.44;5067811;27;96793;-76
2023/12/17 02:34:03;;;;;;;0.88;0.80;;;;;;;21.33;45.11;103673.44;5046574;27;99573;-76
2023/12/17 02:36:29;;;;;;;1.58;0.90;;;;;;;21.32;45.18;103680.78;5066743;27;96783;-76
2023/12/17 02:38:56;;;;;;;1.00;0.85;;;;;;;21.33;44.73;103674.31;5066913;27;97049;-76
2023/12/17 02:41:23;;;;;;;1.35;0.80;;;;;;;21.34;45.22;103675.19;5057745;27;96627;-76
2023/12/17 02:43:49;;;;;;;1.38;0.90;;;;;;;21.34;45.15;103676.06;5048890;27;98994;-76
2023/12/17 02:46:16;;;;;;;1.00;0.82;;;;;;;21.34;45.22;103675.19;5046899;27;98878;-76
2023/12/17 02:48:43;;;;;;;0.95;0.80;;;;;;;21.33;44.99;103671.59;5063792;27;97422;-76
2023/12/17 02:51:10;;;;;;;1.45;0.80;;;;;;;21.34;45.00;103661.53;5049041;27;96854;-76
2023/12/17 02:53:36;;;;;;;1.25;0.82;;;;;;;21.34;44.89;103656.06;5061171;27;97156;-76
2023/12/17 02:56:03;;;;;;;1.38;1.10;;;;;;;21.34;44.93;103656.06;5068098;27;97313;-76
2023/12/17 02:58:30;;;;;;;2.25;1.00;;;;;;;21.35;45.16;103657.81;5054698;27;98756;-76
2023/12/17 03:00:56;;;;;;;1.13;0.73;;;;;;;21.34;44.93;103656.94;5053667;27;96926;-76
2023/12/17 03:03:23;;;;;;;1.55;1.00;;;;;;;21.35;44.72;103666.00;5053471;27;96797;-76
2023/12/17 03:05:50;;;;;;;1.40;0.82;;;;;;;21.34;44.98;103667.88;5042712;27;97590;-76
2023/12/17 03:08:17;;;;;;;1.20;0.80;;;;;;;21.34;45.20;103667.88;5043576;27;97752;-76
2023/12/17 03:10:43;;;;;;;0.77;0.70;;;;;;;21.34;44.85;103665.13;5050861;27;96645;-76
2023/12/17 03:13:10;;;;;;;1.20;0.75;;;;;;;21.35;45.25;103669.63;5053855;27;96776;-76
2023/12/17 03:15:37;;;;;;;1.50;0.90;;;;;;;21.35;45.11;103660.53;5069079;27;96871;-76
2023/12/17 03:18:04;;;;;;;1.08;0.80;;;;;;;21.35;45.10;103661.41;5068100;27;97824;-76
2023/12/17 03:20:31;;;;;;;1.08;0.88;;;;;;;21.35;45.05;103666.00;5043460;27;96955;-76
2023/12/17 03:22:58;;;;;;;1.45;1.00;;;;;;;21.35;44.98;103666.88;5053742;27;96952;-76
2023/12/17 03:25:26;;;;;;;1.15;0.80;;;;;;;21.35;44.84;103658.69;5071910;27;96634;-76
2023/12/17 03:27:52;;;;;;;0.77;0.70;;;;;;;21.35;45.11;103660.53;5072233;27;96756;-76
2023/12/17 03:30:19;;;;;;;1.50;1.00;;;;;;;21.36;44.98;103652.22;5050159;27;96822;-76
2023/12/17 03:32:46;;;;;;;1.63;1.52;;;;;;;21.35;45.05;103647.75;5065600;27;96781;-76
2023/12/17 03:35:13;;;;;;;1.38;0.90;;;;;;;21.35;45.18;103647.75;5058213;27;96966;-76
2023/12/17 03:37:40;;;;;;;1.27;0.98;;;;;;;21.36;45.21;103641.28;5064807;27;98994;-76
2023/12/17 03:40:07;;;;;;;1.85;0.73;;;;;;;21.36;45.05;103641.28;5042672;27;97907;-76
2023/12/17 03:42:34;;;;;;;1.08;0.95;;;;;;;21.36;45.09;103645.88;5044373;27;97106;-76
2023/12/17 03:45:01;;;;;;;1.00;0.90;;;;;;;21.36;45.04;103646.75;5049507;27;97010;-76
2023/12/17 03:47:28;;;;;;;1.25;0.80;;;;;;;21.36;45.00;103641.28;5059664;27;96645;-76
2023/12/17 03:49:54;;;;;;;1.08;0.98;;;;;;;21.36;45.10;103645.88;5064358;27;96834;-76
2023/12/17 03:52:21;;;;;;;1.02;0.88;;;;;;;21.36;45.30;103646.75;5060356;27;96925;-76
2023/12/17 03:54:48;;;;;;;1.20;0.70;;;;;;;21.36;45.34;103641.28;5057395;27;96891;-76
2023/12/17 03:57:14;;;;;;;1.13;0.90;;;;;;;21.37;45.23;103642.16;5046770;27;99665;-76
2023/12/17 03:59:41;;;;;;;1.20;1.10;;;;;;;21.36;44.97;103633.09;5061076;27;96717;-76
2023/12/17 04:02:08;;;;;;;1.08;0.90;;;;;;;21.37;45.10;103633.97;5040862;27;96747;-76
2023/12/17 04:04:34;;;;;;;0.80;0.73;;;;;;;21.37;44.87;103636.69;5050757;27;96850;-76
2023/12/17 04:07:01;;;;;;;1.17;0.90;;;;;;;21.37;45.12;103621.16;5053371;27;96718;-76
2023/12/17 04:09:28;;;;;;;1.15;1.00;;;;;;;21.36;45.04;103613.94;5045993;27;97837;-76
2023/12/17 04:11:54;;;;;;;1.33;0.80;;;;;;;21.37;45.10;103612.09;5069167;27;98029;-76
2023/12/17 04:14:21;;;;;;;1.17;0.90;;;;;;;21.37;44.93;103606.63;5039666;27;97622;-76
2023/12/17 04:16:48;;;;;;;1.00;0.85;;;;;;;21.37;44.96;103607.50;5069908;27;97362;-76
2023/12/17 04:19:15;;;;;;;1.63;0.88;;;;;;;21.36;45.31;103605.75;5065113;27;96668;-76
2023/12/17 04:21:41;;;;;;;1.48;0.90;;;;;;;21.37;44.93;103607.50;5047573;27;97477;-76
2023/12/17 04:24:08;;;;;;;1.05;0.90;;;;;;;21.37;44.98;103603.88;5062309;27;98439;-76
2023/12/17 04:26:35;;;;;;;1.08;0.85;;;;;;;21.37;44.90;103610.22;5068036;27;96734;-76
2023/12/17 04:29:02;;;;;;;0.85;0.70;;;;;;;21.37;45.10;103604.75;5042542;27;96836;-76
2023/12/17 04:31:29;;;;;;;1.15;0.80;;;;;;;21.37;45.20;103604.75;5071726;27;96674;-76
2023/12/17 04:33:56;;;;;;;1.10;0.90;;;;;;;21.37;44.92;103587.50;5043150;27;98765;-76
2023/12/17 04:36:24;;;;;;;1.90;1.02;;;;;;;21.38;45.22;103600.16;5071518;27;97500;-76
2023/12/17 04:38:50;;;;;;;1.35;0.75;;;;;;;21.38;45.00;103597.44;5053840;27;96912;-76
2023/12/17 04:41:17;;;;;;;1.10;0.82;;;;;;;21.38;45.18;103600.16;5059615;27;96822;-76
2023/12/17 04:43:44;;;;;;;1.35;1.00;;;;;;;21.38;44.79;103595.56;5074234;27;97352;-76
2023/12/17 04:46:11;;;;;;;1.20;0.93;;;;;;;21.38;45.10;103595.56;5072713;27;96943;-76
2023/12/17 04:48:37;;;;;;;0.82;0.70;;;;;;;21.39;45.05;103601.91;5074041;27;96649;-76
2023/12/17 04:51:05;;;;;;;0.85;0.82;;;;;;;21.37;44.96;103599.28;5074294;27;96882;-76
2023/12/17 04:53:31;;;;;;;1.20;0.90;;;;;;;21.39;44.72;103602.78;5060300;27;97716;-76
2023/12/17 04:55:58;;;;;;;1.42;0.93;;;;;;;21.38;45.15;103602.91;5053043;27;98518;-76
2023/12/17 04:58:25;;;;;;;1.30;1.00;;;;;;;21.39;45.15;103601.91;5044177;27;97111;-76
2023/12/17 05:00:52;;;;;;;1.00;0.75;;;;;;;21.38;44.97;103603.78;5060590;27;97855;-76
2023/12/17 05:03:18;;;;;;;0.80;0.65;;;;;;;21.39;45.23;103601.91;5043975;27;98231;-76
2023/12/17 05:05:45;;;;;;;1.13;0.85;;;;;;;21.39;44.90;103593.72;5049029;27;96844;-76
2023/12/17 05:08:12;;;;;;;0.80;0.80;;;;;;;21.39;45.25;103601.91;5036604;27;98323;-76
2023/12/17 05:10:38;;;;;;;1.20;0.80;;;;;;;21.38;44.92;103595.56;5050824;27;97065;-76
2023/12/17 05:13:05;;;;;;;0.95;0.85;;;;;;;21.39;45.17;103590.97;5069929;27;97388;-76
2023/12/17 05:15:32;;;;;;;1.10;0.90;;;;;;;21.39;45.34;103585.50;5071712;27;97086;-76
2023/12/17 05:17:59;;;;;;;1.00;0.70;;;;;;;21.40;45.13;103587.25;5068215;27;96883;-76
2023/12/17 05:20:26;;;;;;;0.93;0.77;;;;;;;21.40;45.10;103579.06;5063433;27;96726;-76
2023/12/17 05:22:52;;;;;;;1.00;0.90;;;;;;;21.39;45.08;103589.13;5070051;27;96973;-76
2023/12/17 05:25:19;;;;;;;1.00;0.80;;;;;;;21.39;45.13;103591.84;5071942;27;97747;-76
2023/12/17 05:27:46;;;;;;;0.90;0.80;;;;;;;21.40;44.89;103584.53;5063955;27;96720;-76
2023/12/17 05:30:13;;;;;;;1.20;0.70;;;;;;;21.39;45.10;103583.66;5066370;27;96974;-76
2023/12/17 05:32:40;;;;;;;1.00;0.80;;;;;;;21.40;44.92;103593.59;5068582;27;98246;-76
2023/12/17 05:35:07;;;;;;;1.08;0.98;;;;;;;21.39;44.88;103580.91;5067747;27;96813;-76
2023/12/17 05:37:34;;;;;;;0.73;0.73;;;;;;;21.40;44.90;103581.78;5065918;27;96696;-76
2023/12/17 05:40:02;;;;;;;1.30;0.73;;;;;;;21.40;44.57;103576.31;5059083;27;96842;-75
2023/12/17 05:42:28;;;;;;;0.73;0.63;;;;;;;21.39;45.01;103571.84;5054468;27;97172;-76
2023/12/17 05:44:55;;;;;;;1.00;0.75;;;;;;;21.40;44.92;103576.31;5070416;27;97470;-76
2023/12/17 05:47:22;;;;;;;1.08;0.90;;;;;;;21.40;45.26;103573.59;5066819;27;96823;-76
2023/12/17 05:49:48;;;;;;;1.30;0.90;;;;;;;21.40;44.87;103571.72;5071817;27;97032;-76
2023/12/17 05:52:15;;;;;;;1.00;0.80;;;;;;;21.39;44.82;103567.25;5060105;27;98017;-76
2023/12/17 05:54:44;;;;;;;0.90;0.70;;;;;;;21.40;44.90;103571.72;5054658;27;97160;-76
2023/12/17 05:57:10;;;;;;;1.80;1.00;;;;;;;21.40;44.85;103573.59;5058813;27;97170;-76
2023/12/17 05:59:37;;;;;;;1.20;0.80;;;;;;;21.40;45.09;103573.59;5064084;27;96885;-76
2023/12/17 06:02:04;;;;;;;1.00;0.90;;;;;;;21.40;44.79;103565.38;5054060;27;99661;-76
2023/12/17 06:04:31;;;;;;;1.05;0.80;;;;;;;21.40;45.08;103573.59;5065949;27;97087;-76
2023/12/17 06:06:58;;;;;;;1.35;0.95;;;;;;;21.40;45.04;103570.84;5071593;27;96676;-76
2023/12/17 06:09:26;;;;;;;1.20;1.00;;;;;;;21.39;44.82;103575.44;5048374;27;97233;-76
2023/12/17 06:11:55;;;;;;;1.77;0.80;;;;;;;21.39;44.84;103578.19;5042116;27;98354;-76
2023/12/17 06:14:21;;;;;;;1.40;0.98;;;;;;;21.40;44.97;103576.31;5073701;27;98210;-76
2023/12/17 06:16:48;;;;;;;0.98;0.73;;;;;;;21.40;45.07;103581.78;5064393;27;96615;-76
2023/12/17 06:19:15;;;;;;;0.70;0.60;;;;;;;21.40;44.98;103582.66;5052042;27;96869;-76
2023/12/17 06:21:41;;;;;;;1.15;0.93;;;;;;;21.38;44.79;103576.44;5060828;27;97803;-76
2023/12/17 06:24:08;;;;;;;1.10;0.80;;;;;;;21.39;45.08;103578.19;5068038;27;96998;-76
2023/12/17 06:26:36;;;;;;;0.98;0.73;;;;;;;21.39;45.02;103578.19;5043943;27;97125;-76
2023/12/17 06:29:03;;;;;;;1.52;0.90;;;;;;;21.39;44.97;103578.19;5060038;27;96638;-76
2023/12/17 06:31:30;;;;;;;1.17;0.73;;;;;;;21.38;45.18;103576.44;5071604;27;97003;-76
2023/12/17 06:33:57;;;;;;;0.70;0.70;;;;;;;21.40;44.81;103576.31;5059352;27;96870;-76
2023/12/17 06:36:24;;;;;;;0.90;0.80;;;;;;;21.39;44.89;103564.50;5049331;27;96779;-76
2023/12/17 06:38:50;;;;;;;1.50;1.00;;;;;;;21.39;44.82;103575.44;5073367;27;97084;-76
2023/12/17 06:41:17;;;;;;;1.02;0.82;;;;;;;21.39;44.94;103569.97;5065132;27;97150;-76
2023/12/17 06:43:44;;;;;;;0.95;0.70;;;;;;;21.40;44.96;103573.59;5045827;27;100390;-76
2023/12/17 06:46:15;;;;;;;1.02;0.70;;;;;;;21.39;44.86;103580.91;5056591;27;96739;-76
2023/12/17 06:48:43;;;;;;;0.90;0.60;;;;;;;21.39;44.80;103580.91;5051817;27;96682;-76
2023/12/17 06:51:12;;;;;;;0.70;0.70;;;;;;;21.39;44.96;103578.19;5065907;27;98016;-76
2023/12/17 06:53:39;;;;;;;1.05;0.88;;;;;;;21.39;45.13;103574.56;5053550;27;97679;-76
2023/12/17 06:56:06;;;;;;;1.08;0.90;;;;;;;21.40;44.88;103590.00;5072423;27;99515;-76
2023/12/17 06:58:35;;;;;;;0.90;0.80;;;;;;;21.39;45.05;103580.91;5065576;27;97165;-76
2023/12/17 07:01:02;;;;;;;0.82;0.77;;;;;;;21.39;45.14;103586.38;5050945;27;97604;-76
2023/12/17 07:03:29;;;;;;;1.25;0.70;;;;;;;21.39;45.07;103591.84;5058452;27;98315;-76
2023/12/17 07:05:55;;;;;;;0.80;0.80;;;;;;;21.39;45.00;103591.84;5061947;27;97120;-77
2023/12/17 07:08:22;;;;;;;1.30;0.85;;;;;;;21.39;45.04;103590.97;5063044;27;99160;-76
2023/12/17 07:10:50;;;;;;;1.02;0.70;;;;;;;21.39;44.83;103593.72;5049509;27;96812;-76
2023/12/17 07:13:16;;;;;;;1.00;0.70;;;;;;;21.39;44.88;103590.97;5048266;27;99351;-76
2023/12/17 07:15:43;;;;;;;1.20;0.85;;;;;;;21.38;45.09;103581.91;5044547;27;96867;-76
2023/12/17 07:18:10;;;;;;;0.90;0.70;;;;;;;21.39;44.82;103593.72;5045445;27;97305;-76
2023/12/17 07:20:37;;;;;;;1.33;0.80;;;;;;;21.38;44.91;103592.84;5054895;27;96839;-76
2023/12/17 07:23:03;;;;;;;1.00;0.90;;;;;;;21.38;45.13;103603.78;5050807;27;98429;-76
2023/12/17 07:25:30;;;;;;;1.10;0.90;;;;;;;21.38;44.80;103600.16;5063322;27;97742;-76
2023/12/17 07:27:57;;;;;;;1.45;0.90;;;;;;;21.38;44.41;103605.63;5060940;27;96974;-76
2023/12/17 07:30:23;;;;;;;1.40;0.90;;;;;;;21.37;44.89;103599.28;5062289;27;96899;-77
2023/12/17 07:32:50;;;;;;;1.80;0.60;;;;;;;21.38;44.87;103608.38;5055861;27;97345;-76
2023/12/17 07:35:17;;;;;;;1.25;0.95;;;;;;;21.39;44.77;103604.66;5071776;27;96990;-76
2023/12/17 07:37:44;;;;;;;1.05;0.80;;;;;;;21.38;45.07;103601.03;5037393;27;96861;-76
2023/12/17 07:40:11;;;;;;;1.25;0.88;;;;;;;21.38;45.18;103606.50;5052597;27;100760;-76
2023/12/17 07:42:37;;;;;;;1.17;0.70;;;;;;;21.37;44.86;103604.75;5061767;27;97795;-75
2023/12/17 07:45:05;;;;;;;2.65;0.85;;;;;;;21.36;44.75;103608.47;5070154;27;97063;-75
2023/12/17 07:47:32;;;;;;;1.10;0.80;;;;;;;21.37;44.93;103609.34;5069935;27;97250;-75
2023/12/17 07:49:59;;;;;;;1.25;0.85;;;;;;;21.36;45.04;103608.47;5071535;27;98388;-75
2023/12/17 07:52:26;;;;;;;1.00;0.88;;;;;;;21.37;45.06;103618.44;5064732;27;97152;-75
2023/12/17 07:54:53;;;;;;;1.30;0.90;;;;;;;21.37;45.03;103614.81;5063645;27;97331;-75
2023/12/17 07:57:20;;;;;;;1.70;1.05;;;;;;;21.37;44.97;103614.81;5045357;27;96854;-75
2023/12/17 07:59:47;;;;;;;1.00;0.88;;;;;;;21.37;45.05;103607.50;5069506;27;97943;-75
2023/12/17 08:02:17;;;;;;;1.20;0.90;;;;;;;21.36;44.84;103613.94;5040665;27;97571;-75
2023/12/17 08:04:46;;;;;;;1.65;1.00;;;;;;;21.37;45.13;103606.63;5067784;27;96727;-75
2023/12/17 08:07:13;;;;;;;1.27;0.80;;;;;;;21.36;45.11;103613.94;5064781;27;96859;-75
2023/12/17 08:09:40;;;;;;;1.52;0.80;;;;;;;21.36;45.09;103613.94;5039669;27;100470;-75
2023/12/17 08:12:07;;;;;;;2.05;0.70;;;;;;;21.36;45.31;103615.81;5068938;27;98094;-75
2023/12/17 08:14:34;;;;;;;4.35;1.05;;;;;;;21.36;45.22;103613.94;5063172;27;97193;-75
2023/12/17 08:17:01;;;;;;;1.10;0.73;;;;;;;21.36;44.96;103613.06;5063011;27;96586;-75
2023/12/17 08:19:27;;;;;;;1.75;0.90;;;;;;;21.35;45.01;103617.66;5066336;27;98394;-75
2023/12/17 08:21:57;;;;;;;1.20;0.90;;;;;;;21.35;44.86;103609.47;5043964;27;99720;-75
2023/12/17 08:24:25;;;;;;;1.08;0.82;;;;;;;21.36;45.04;103613.06;5064801;27;96859;-75
2023/12/17 08:26:54;;;;;;;2.53;0.80;;;;;;;21.36;45.00;103613.94;5052066;27;97370;-75
2023/12/17 08:29:21;;;;;;;1.40;0.90;;;;;;;21.36;44.97;103616.69;5033988;27;96808;-75
2023/12/17 08:31:48;;;;;;;0.88;0.80;;;;;;;21.36;45.02;103613.06;5052626;27;97042;-75
2023/12/17 08:34:15;;;;;;;1.13;0.77;;;;;;;21.36;44.90;103618.53;5063379;27;96888;-75
2023/12/17 08:36:43;;;;;;;0.90;0.80;;;;;;;21.36;44.98;103613.94;5049252;27;97267;-75
2023/12/17 08:39:11;;;;;;;1.48;0.80;;;;;;;21.36;45.11;103615.81;5066855;27;98613;-75
2023/12/17 08:41:39;;;;;;;1.25;0.80;;;;;;;21.36;45.08;103611.22;5057059;27;97255;-75
2023/12/17 08:44:06;;;;;;;1.65;0.88;;;;;;;21.36;45.13;103613.94;5063232;27;96817;-75
2023/12/17 08:46:33;;;;;;;1.27;0.90;;;;;;;21.37;45.23;103614.81;5054150;27;96765;-75
2023/12/17 08:49:02;;;;;;;2.55;0.82;;;;;;;21.37;45.12;103617.56;5040090;27;96912;-75
2023/12/17 08:51:29;;;;;;;1.98;1.00;;;;;;;21.37;45.00;103609.34;5052308;27;96810;-75
2023/12/17 08:53:56;;;;;;;1.10;0.88;;;;;;;21.38;45.09;103613.84;5052859;27;96903;-75
2023/12/17 08:56:23;;;;;;;1.55;1.02;;;;;;;21.37;45.00;103609.34;5033658;27;96669;-75
2023/12/17 08:58:49;;;;;;;0.95;0.80;;;;;;;21.38;44.96;103616.56;5064866;27;96765;-75
2023/12/17 09:01:19;;;;;;;1.40;0.95;;;;;;;21.38;45.18;103606.50;5040865;27;96813;-75
2023/12/17 09:03:46;;;;;;;1.20;0.85;;;;;;;21.38;45.22;103611.09;5056819;27;96712;-75
2023/12/17 09:06:13;;;;;;;1.10;0.68;;;;;;;21.38;45.36;103606.50;5063940;27;96735;-75
2023/12/17 09:08:39;;;;;;;1.23;0.80;;;;;;;21.37;45.05;103602.03;5063772;27;96954;-75
2023/12/17 09:11:06;;;;;;;1.10;0.80;;;;;;;21.38;45.08;103609.25;5040754;27;96819;-75
2023/12/17 09:13:33;;;;;;;1.55;1.02;;;;;;;21.39;45.21;103611.00;5033179;27;96751;-75
2023/12/17 09:15:59;;;;;;;0.70;0.60;;;;;;;21.39;45.00;103605.53;5059070;27;97048;-75
2023/12/17 09:18:26;;;;;;;1.00;0.77;;;;;;;21.39;44.85;103602.78;5059494;27;98242;-75
2023/12/17 09:20:53;;;;;;;0.90;0.70;;;;;;;21.39;44.85;103602.78;5050849;27;100296;-75
2023/12/17 09:23:20;;;;;;;0.88;0.70;;;;;;;21.39;45.30;103596.44;5036321;27;96689;-75
2023/12/17 09:25:46;;;;;;;1.20;0.93;;;;;;;21.39;45.22;103590.97;5053403;27;96856;-75
2023/12/17 09:28:13;;;;;;;1.80;0.80;;;;;;;21.39;44.63;103596.44;5070671;27;97856;-75
2023/12/17 09:30:39;;;;;;;1.10;0.82;;;;;;;21.39;45.32;103605.53;5069429;27;97012;-75
2023/12/17 09:33:06;;;;;;;1.92;0.80;;;;;;;21.40;45.04;103603.66;5051341;27;96786;-75
2023/12/17 09:35:36;;;;;;;1.05;0.70;;;;;;;21.40;45.21;103603.66;5056241;27;96842;-75
2023/12/17 09:38:04;;;;;;;1.70;0.80;;;;;;;21.40;45.01;103610.00;5065730;27;96866;-75
2023/12/17 09:40:38;;;;;;;1.27;0.88;;;;;;;21.40;45.04;103604.53;5070757;27;96692;-75
2023/12/17 09:43:04;;;;;;;1.45;0.73;;;;;;;21.41;45.25;103610.88;5070271;27;97225;-75
2023/12/17 09:45:31;;;;;;;0.73;0.60;;;;;;;21.41;45.28;103613.63;5059244;27;97097;-75
2023/12/17 09:47:58;;;;;;;0.82;0.68;;;;;;;21.40;44.94;103618.22;5066777;27;97352;-75
2023/12/17 09:50:27;;;;;;;2.15;0.82;;;;;;;21.41;44.96;103611.75;5061354;27;96724;-75
2023/12/17 09:52:54;;;;;;;2.05;0.90;;;;;;;21.41;44.87;103617.22;5052413;27;97392;-75
2023/12/17 09:55:21;;;;;;;2.35;0.73;;;;;;;21.41;45.22;103613.63;5062886;27;96642;-75
2023/12/17 09:57:48;;;;;;;1.23;0.73;;;;;;;21.41;45.19;103619.97;5054967;27;96998;-75
2023/12/17 10:00:15;;;;;;;1.30;0.70;;;;;;;21.41;44.88;103622.69;5051905;27;96955;-75
2023/12/17 10:02:42;;;;;;;1.92;1.10;;;;;;;21.42;44.76;103618.97;5033421;27;96856;-75
2023/12/17 10:05:09;;;;;;;1.50;0.90;;;;;;;21.41;44.96;103614.50;5051194;27;96736;-75
2023/12/17 10:07:37;;;;;;;1.00;0.68;;;;;;;21.42;44.97;103613.50;5044627;27;96955;-75
2023/12/17 10:10:06;;;;;;;1.48;0.70;;;;;;;21.42;45.01;103615.34;5051195;27;96684;-75
2023/12/17 10:12:34;;;;;;;1.40;0.98;;;;;;;21.42;45.14;103624.44;5033573;27;97884;-75
2023/12/17 10:15:00;;;;;;;1.15;0.80;;;;;;;21.42;45.08;103624.44;5064181;27;96778;-75
2023/12/17 10:17:28;;;;;;;0.98;0.73;;;;;;;21.42;44.94;103627.16;5034858;27;97520;-75
2023/12/17 10:19:55;;;;;;;1.08;0.75;;;;;;;21.42;45.09;103624.44;5046505;27;97927;-75
2023/12/17 10:22:22;;;;;;;0.90;0.65;;;;;;;21.42;45.06;103629.91;5045627;27;96925;-75
2023/12/17 10:24:49;;;;;;;1.20;0.80;;;;;;;21.43;45.26;103620.72;5035043;27;96830;-75
2023/12/17 10:27:18;;;;;;;1.05;0.80;;;;;;;21.43;44.90;103617.09;5051827;27;96974;-75
2023/12/17 10:29:51;;;;;;;0.80;0.80;;;;;;;21.43;44.96;103626.19;5069816;27;97905;-75
2023/12/17 10:32:21;;;;;;;1.48;0.80;;;;;;;21.42;45.17;103621.69;5063091;27;96823;-75
2023/12/17 10:34:50;;;;;;;1.00;0.70;;;;;;;21.44;44.93;103625.19;5045496;27;96758;-75
2023/12/17 10:37:22;;;;;;;1.90;0.90;;;;;;;21.43;44.76;103628.91;5051659;27;99641;-75
2023/12/17 10:39:50;;;;;;;0.80;0.63;;;;;;;21.43;44.74;103625.31;5049132;27;96902;-75
2023/12/17 10:42:18;;;;;;;1.27;1.00;;;;;;;21.43;44.87;103619.84;5064091;27;96799;-75
2023/12/17 10:44:47;;;;;;;1.17;0.80;;;;;;;21.42;44.87;103616.22;5055728;27;96872;-75
2023/12/17 10:47:18;;;;;;;1.73;1.00;;;;;;;21.43;44.68;103615.25;5051155;27;99315;-75
2023/12/17 10:49:46;;;;;;;1.38;0.80;;;;;;;21.42;44.73;103610.75;5069012;27;96672;-75
2023/12/17 10:52:12;;;;;;;1.20;0.90;;;;;;;21.43;44.95;103612.50;5068569;27;96733;-75
2023/12/17 10:54:40;;;;;;;1.02;0.85;;;;;;;21.43;44.82;103606.16;5052122;27;97297;-75
2023/12/17 10:57:19;;;;;;;2.05;1.00;;;;;;;21.44;45.07;103596.97;5068936;27;97316;-75
2023/12/17 10:59:49;;;;;;;1.17;0.93;;;;;;;21.43;44.83;103598.84;5051176;27;99560;-75
2023/12/17 11:02:19;;;;;;;1.45;0.90;;;;;;;21.44;45.07;103600.59;5069420;27;96927;-75
2023/12/17 11:04:46;;;;;;;1.50;0.95;;;;;;;21.43;44.92;103590.63;5070181;27;96701;-75
2023/12/17 11:07:20;;;;;;;1.35;1.00;;;;;;;21.44;44.93;103589.66;5068420;27;98159;-75
2023/12/17 11:10:10;;;;;;;1.05;0.95;;;;;;;21.43;45.14;103584.28;5050081;27;98627;-75
2023/12/17 11:12:39;;;;;;;0.90;0.80;;;;;;;21.43;44.73;103582.44;5038193;27;97495;-75
2023/12/17 11:15:06;;;;;;;1.25;0.82;;;;;;;21.43;44.86;103576.97;5064572;27;96619;-75
2023/12/17 11:17:33;;;;;;;2.47;1.10;;;;;;;21.43;44.75;103571.50;5053994;27;97942;-75
2023/12/17 11:20:02;;;;;;;1.67;0.88;;;;;;;21.44;44.86;103569.63;5064309;27;97680;-75
2023/12/17 11:22:34;;;;;;;1.27;0.80;;;;;;;21.46;44.63;103570.41;5062402;27;97137;-75
2023/12/17 11:25:01;;;;;;;1.33;0.90;;;;;;;21.44;44.77;103564.16;5033248;27;97026;-75